sensor_id;sensor_type;location;lat;lon;timestamp;pressure;altitude;pressure_sealevel;temperature;humidity
27958;BME280;15295;42.658;23.374;2023-12-14T00:01:23;93593.41;;;11.37;52.95
27958;BME280;15295;42.658;23.374;2023-12-14T00:03:48;93600.41;;;11.38;53.11
27958;BME280;15295;42.658;23.374;2023-12-14T00:06:14;93581.16;;;11.25;52.89
27958;BME280;15295;42.658;23.374;2023-12-14T00:08:42;93607.72;;;11.25;53.34
27958;BME280;15295;42.658;23.374;2023-12-14T00:11:09;93578.50;;;11.22;53.40
27958;BME280;15295;42.658;23.374;2023-12-14T00:13:35;93595.59;;;11.26;53.23
27958;BME280;15295;42.658;23.374;2023-12-14T00:16:00;93596.03;;;11.24;53.52
27958;BME280;15295;42.658;23.374;2023-12-14T00:18:26;93581.34;;;11.18;53.37
27958;BME280;15295;42.658;23.374;2023-12-14T00:20:52;93593.03;;;11.19;53.37
27958;BME280;15295;42.658;23.374;2023-12-14T00:23:19;93606.19;;;11.24;53.53
27958;BME280;15295;42.658;23.374;2023-12-14T00:25:44;93595.25;;;11.24;53.53
27958;BME280;15295;42.658;23.374;2023-12-14T00:28:10;93599.69;;;11.18;53.60
27958;BME280;15295;42.658;23.374;2023-12-14T00:30:37;93603.63;;;11.17;53.75
27958;BME280;15295;42.658;23.374;2023-12-14T00:33:02;93583.88;;;11.09;53.87
27958;BME280;15295;42.658;23.374;2023-12-14T00:35:28;93604.81;;;11.16;53.66
27958;BME280;15295;42.658;23.374;2023-12-14T00:37:53;93590.59;;;11.05;53.70
27958;BME280;15295;42.658;23.374;2023-12-14T00:40:19;93592.47;;;11.08;53.71
27958;BME280;15295;42.658;23.374;2023-12-14T00:42:44;93599.38;;;10.96;54.42
27958;BME280;15295;42.658;23.374;2023-12-14T00:45:10;93605.06;;;11.05;53.94
27958;BME280;15295;42.658;23.374;2023-12-14T00:47:35;93600.00;;;11.04;53.75
27958;BME280;15295;42.658;23.374;2023-12-14T00:50:02;93609.75;;;11.05;53.63
27958;BME280;15295;42.658;23.374;2023-12-14T00:52:27;93600.34;;;11.06;53.52
27958;BME280;15295;42.658;23.374;2023-12-14T00:54:53;93591.09;;;11.00;53.65
27958;BME280;15295;42.658;23.374;2023-12-14T00:57:19;93578.09;;;10.88;53.68
27958;BME280;15295;42.658;23.374;2023-12-14T00:59:51;93593.78;;;11.03;53.71
27958;BME280;15295;42.658;23.374;2023-12-14T01:02:16;93582.91;;;11.00;53.76
27958;BME280;15295;42.658;23.374;2023-12-14T01:04:42;93576.75;;;10.96;53.81
27958;BME280;15295;42.658;23.374;2023-12-14T01:07:08;93601.97;;;11.03;53.68
27958;BME280;15295;42.658;23.374;2023-12-14T01:09:33;93601.00;;;10.94;53.85
27958;BME280;15295;42.658;23.374;2023-12-14T01:11:59;93607.28;;;10.91;54.06
27958;BME280;15295;42.658;23.374;2023-12-14T01:14:25;93583.47;;;10.91;53.46
27958;BME280;15295;42.658;23.374;2023-12-14T01:16:50;93597.00;;;10.78;54.03
27958;BME280;15295;42.658;23.374;2023-12-14T01:19:42;93607.03;;;10.85;54.21
27958;BME280;15295;42.658;23.374;2023-12-14T01:22:07;93608.28;;;10.80;54.37
27958;BME280;15295;42.658;23.374;2023-12-14T01:24:33;93577.06;;;10.81;54.22
27958;BME280;15295;42.658;23.374;2023-12-14T01:26:58;93581.41;;;10.79;54.08
27958;BME280;15295;42.658;23.374;2023-12-14T01:29:31;93579.78;;;10.81;54.28
27958;BME280;15295;42.658;23.374;2023-12-14T01:31:56;93582.28;;;10.92;54.34
27958;BME280;15295;42.658;23.374;2023-12-14T01:34:24;93566.38;;;10.87;54.17
27958;BME280;15295;42.658;23.374;2023-12-14T01:36:53;93623.63;;;10.94;54.11
27958;BME280;15295;42.658;23.374;2023-12-14T01:39:18;93567.16;;;10.88;54.01
27958;BME280;15295;42.658;23.374;2023-12-14T01:41:43;93620.81;;;10.98;54.15
27958;BME280;15295;42.658;23.374;2023-12-14T01:44:10;93549.91;;;10.91;53.88
27958;BME280;15295;42.658;23.374;2023-12-14T01:46:36;93603.47;;;10.88;54.16
27958;BME280;15295;42.658;23.374;2023-12-14T01:49:01;93567.81;;;10.75;54.29
27958;BME280;15295;42.658;23.374;2023-12-14T01:51:34;93596.81;;;10.69;54.52
27958;BME280;15295;42.658;23.374;2023-12-14T01:54:08;93567.97;;;10.68;54.39
27958;BME280;15295;42.658;23.374;2023-12-14T01:56:34;93598.22;;;10.58;54.69
27958;BME280;15295;42.658;23.374;2023-12-14T01:58:59;93561.84;;;10.61;54.72
27958;BME280;15295;42.658;23.374;2023-12-14T02:01:54;93613.06;;;10.57;55.00
27958;BME280;15295;42.658;23.374;2023-12-14T02:04:23;93559.19;;;10.57;54.74
27958;BME280;15295;42.658;23.374;2023-12-14T02:06:49;93599.34;;;10.60;55.12
27958;BME280;15295;42.658;23.374;2023-12-14T02:09:14;93566.75;;;10.69;54.85
27958;BME280;15295;42.658;23.374;2023-12-14T02:11:51;93570.69;;;10.68;54.80
27958;BME280;15295;42.658;23.374;2023-12-14T02:14:17;93564.88;;;10.66;54.87
27958;BME280;15295;42.658;23.374;2023-12-14T02:16:42;93573.75;;;10.70;54.85
27958;BME280;15295;42.658;23.374;2023-12-14T02:19:08;93552.91;;;10.60;54.89
27958;BME280;15295;42.658;23.374;2023-12-14T02:21:33;93557.84;;;10.65;54.83
27958;BME280;15295;42.658;23.374;2023-12-14T02:23:59;93531.41;;;10.62;54.84
27958;BME280;15295;42.658;23.374;2023-12-14T02:26:24;93552.81;;;10.64;54.98
27958;BME280;15295;42.658;23.374;2023-12-14T02:28:50;93551.22;;;10.66;55.02
27958;BME280;15295;42.658;23.374;2023-12-14T02:31:17;93555.22;;;10.62;54.74
27958;BME280;15295;42.658;23.374;2023-12-14T02:33:42;93531.88;;;10.57;54.96
27958;BME280;15295;42.658;23.374;2023-12-14T02:36:08;93559.41;;;10.66;55.01
27958;BME280;15295;42.658;23.374;2023-12-14T02:38:34;93552.03;;;10.63;55.09
27958;BME280;15295;42.658;23.374;2023-12-14T02:40:59;93547.97;;;10.71;55.30
27958;BME280;15295;42.658;23.374;2023-12-14T02:43:25;93567.66;;;10.82;54.96
27958;BME280;15295;42.658;23.374;2023-12-14T02:45:50;93543.63;;;10.74;54.95
27958;BME280;15295;42.658;23.374;2023-12-14T02:48:16;93562.63;;;10.81;54.84
27958;BME280;15295;42.658;23.374;2023-12-14T02:50:42;93560.91;;;10.87;54.69
27958;BME280;15295;42.658;23.374;2023-12-14T02:53:07;93582.44;;;10.85;54.52
27958;BME280;15295;42.658;23.374;2023-12-14T02:55:33;93564.09;;;10.85;54.08
27958;BME280;15295;42.658;23.374;2023-12-14T02:57:58;93568.06;;;10.81;54.15
27958;BME280;15295;42.658;23.374;2023-12-14T03:00:24;93575.00;;;10.85;54.31
27958;BME280;15295;42.658;23.374;2023-12-14T03:02:49;93567.50;;;10.90;54.40
27958;BME280;15295;42.658;23.374;2023-12-14T03:05:15;93560.00;;;10.94;54.30
27958;BME280;15295;42.658;23.374;2023-12-14T03:07:41;93544.09;;;10.88;53.94
27958;BME280;15295;42.658;23.374;2023-12-14T03:10:07;93568.69;;;10.88;54.12
27958;BME280;15295;42.658;23.374;2023-12-14T03:12:32;93550.41;;;10.85;54.10
27958;BME280;15295;42.658;23.374;2023-12-14T03:14:59;93554.19;;;10.92;54.32
27958;BME280;15295;42.658;23.374;2023-12-14T03:17:24;93553.00;;;10.93;54.25
27958;BME280;15295;42.658;23.374;2023-12-14T03:19:50;93541.69;;;10.91;54.21
27958;BME280;15295;42.658;23.374;2023-12-14T03:22:17;93550.44;;;11.02;54.20
27958;BME280;15295;42.658;23.374;2023-12-14T03:24:42;93553.34;;;10.95;54.04
27958;BME280;15295;42.658;23.374;2023-12-14T03:27:07;93526.00;;;10.95;54.15
27958;BME280;15295;42.658;23.374;2023-12-14T03:29:33;93535.75;;;10.96;54.00
27958;BME280;15295;42.658;23.374;2023-12-14T03:32:17;93541.66;;;11.10;54.00
27958;BME280;15295;42.658;23.374;2023-12-14T03:34:42;93540.47;;;11.11;53.66
27958;BME280;15295;42.658;23.374;2023-12-14T03:37:08;93516.63;;;11.12;53.75
27958;BME280;15295;42.658;23.374;2023-12-14T03:39:33;93551.16;;;11.22;53.61
27958;BME280;15295;42.658;23.374;2023-12-14T03:44:54;93523.13;;;11.18;53.45
27958;BME280;15295;42.658;23.374;2023-12-14T03:47:20;93520.16;;;11.28;53.30
27958;BME280;15295;42.658;23.374;2023-12-14T03:49:46;93532.00;;;11.38;53.25
27958;BME280;15295;42.658;23.374;2023-12-14T03:52:16;93514.94;;;11.34;53.27
27958;BME280;15295;42.658;23.374;2023-12-14T03:54:41;93533.13;;;11.40;53.02
27958;BME280;15295;42.658;23.374;2023-12-14T03:57:07;93510.31;;;11.47;53.03
27958;BME280;15295;42.658;23.374;2023-12-14T03:59:32;93529.91;;;11.45;53.02
27958;BME280;15295;42.658;23.374;2023-12-14T04:02:10;93526.28;;;11.48;53.00
27958;BME280;15295;42.658;23.374;2023-12-14T04:04:35;93515.44;;;11.45;53.00
27958;BME280;15295;42.658;23.374;2023-12-14T04:07:01;93528.78;;;11.43;53.17
27958;BME280;15295;42.658;23.374;2023-12-14T04:09:26;93515.00;;;11.46;53.11
27958;BME280;15295;42.658;23.374;2023-12-14T04:11:52;93509.63;;;11.43;52.85
27958;BME280;15295;42.658;23.374;2023-12-14T04:14:17;93531.84;;;11.45;53.14
27958;BME280;15295;42.658;23.374;2023-12-14T04:16:42;93533.56;;;11.55;52.95
27958;BME280;15295;42.658;23.374;2023-12-14T04:19:08;93507.06;;;11.52;52.87
27958;BME280;15295;42.658;23.374;2023-12-14T04:21:36;93539.38;;;11.57;52.87
27958;BME280;15295;42.658;23.374;2023-12-14T04:24:01;93534.09;;;11.50;52.93
27958;BME280;15295;42.658;23.374;2023-12-14T04:26:27;93538.34;;;11.51;52.58
27958;BME280;15295;42.658;23.374;2023-12-14T04:28:53;93547.94;;;11.43;53.14
27958;BME280;15295;42.658;23.374;2023-12-14T04:31:18;93493.56;;;11.29;52.86
27958;BME280;15295;42.658;23.374;2023-12-14T04:33:45;93536.31;;;11.39;52.79
27958;BME280;15295;42.658;23.374;2023-12-14T04:36:10;93534.34;;;11.39;52.96
27958;BME280;15295;42.658;23.374;2023-12-14T04:38:36;93507.84;;;11.36;52.98
27958;BME280;15295;42.658;23.374;2023-12-14T04:41:01;93560.06;;;11.26;53.27
27958;BME280;15295;42.658;23.374;2023-12-14T04:43:39;93504.59;;;11.41;53.02
27958;BME280;15295;42.658;23.374;2023-12-14T04:46:05;93536.81;;;11.18;53.59
27958;BME280;15295;42.658;23.374;2023-12-14T04:48:32;93520.41;;;11.34;53.04
27958;BME280;15295;42.658;23.374;2023-12-14T04:50:57;93533.56;;;11.55;53.02
27958;BME280;15295;42.658;23.374;2023-12-14T04:53:43;93533.81;;;11.60;52.95
27958;BME280;15295;42.658;23.374;2023-12-14T04:56:12;93539.81;;;11.55;52.74
27958;BME280;15295;42.658;23.374;2023-12-14T04:58:41;93551.03;;;11.61;52.77
27958;BME280;15295;42.658;23.374;2023-12-14T05:01:07;93536.72;;;11.53;52.43
27958;BME280;15295;42.658;23.374;2023-12-14T05:03:42;93553.88;;;11.74;52.59
27958;BME280;15295;42.658;23.374;2023-12-14T05:06:12;93504.00;;;11.50;52.52
27958;BME280;15295;42.658;23.374;2023-12-14T05:08:41;93497.13;;;11.42;52.24
27958;BME280;15295;42.658;23.374;2023-12-14T05:11:21;93526.50;;;11.74;52.21
27958;BME280;15295;42.658;23.374;2023-12-14T05:14:04;93525.53;;;11.80;52.13
27958;BME280;15295;42.658;23.374;2023-12-14T05:16:30;93517.06;;;11.91;51.90
27958;BME280;15295;42.658;23.374;2023-12-14T05:18:55;93538.84;;;11.94;51.99
27958;BME280;15295;42.658;23.374;2023-12-14T05:21:22;93511.75;;;11.84;52.04
27958;BME280;15295;42.658;23.374;2023-12-14T05:23:49;93529.97;;;11.90;51.98
27958;BME280;15295;42.658;23.374;2023-12-14T05:26:19;93525.09;;;11.82;51.99
27958;BME280;15295;42.658;23.374;2023-12-14T05:28:46;93519.72;;;11.78;52.17
27958;BME280;15295;42.658;23.374;2023-12-14T05:31:13;93508.66;;;11.65;52.05
27958;BME280;15295;42.658;23.374;2023-12-14T05:33:43;93526.28;;;11.81;52.04
27958;BME280;15295;42.658;23.374;2023-12-14T05:36:13;93542.97;;;11.86;52.01
27958;BME280;15295;42.658;23.374;2023-12-14T05:38:39;93550.34;;;11.73;51.91
27958;BME280;15295;42.658;23.374;2023-12-14T05:41:10;93552.88;;;11.64;52.03
27958;BME280;15295;42.658;23.374;2023-12-14T05:43:35;93518.63;;;11.43;52.06
27958;BME280;15295;42.658;23.374;2023-12-14T05:46:02;93551.69;;;11.49;52.26
27958;BME280;15295;42.658;23.374;2023-12-14T05:48:28;93553.25;;;11.50;52.36
27958;BME280;15295;42.658;23.374;2023-12-14T05:50:56;93553.66;;;11.48;52.66
27958;BME280;15295;42.658;23.374;2023-12-14T05:53:22;93549.09;;;11.42;52.71
27958;BME280;15295;42.658;23.374;2023-12-14T05:55:47;93536.47;;;11.48;52.30
27958;BME280;15295;42.658;23.374;2023-12-14T05:58:13;93564.53;;;11.52;52.62
27958;BME280;15295;42.658;23.374;2023-12-14T06:00:38;93555.63;;;11.48;52.74
27958;BME280;15295;42.658;23.374;2023-12-14T06:03:05;93546.06;;;11.56;52.72
27958;BME280;15295;42.658;23.374;2023-12-14T06:05:31;93586.13;;;11.46;52.51
27958;BME280;15295;42.658;23.374;2023-12-14T06:07:56;93559.81;;;11.36;53.01
27958;BME280;15295;42.658;23.374;2023-12-14T06:10:22;93576.47;;;11.42;52.79
27958;BME280;15295;42.658;23.374;2023-12-14T06:12:47;93558.88;;;11.43;52.91
27958;BME280;15295;42.658;23.374;2023-12-14T06:15:19;93572.88;;;11.45;53.03
27958;BME280;15295;42.658;23.374;2023-12-14T06:17:46;93576.66;;;11.51;52.98
27958;BME280;15295;42.658;23.374;2023-12-14T06:20:12;93568.88;;;11.49;53.05
27958;BME280;15295;42.658;23.374;2023-12-14T06:22:41;93601.69;;;11.49;52.96
27958;BME280;15295;42.658;23.374;2023-12-14T06:25:20;93590.13;;;11.42;53.12
27958;BME280;15295;42.658;23.374;2023-12-14T06:27:45;93605.56;;;11.52;53.02
27958;BME280;15295;42.658;23.374;2023-12-14T06:30:11;93592.91;;;11.58;53.05
27958;BME280;15295;42.658;23.374;2023-12-14T06:32:37;93600.78;;;11.56;52.99
27958;BME280;15295;42.658;23.374;2023-12-14T06:35:03;93606.94;;;11.60;53.11
27958;BME280;15295;42.658;23.374;2023-12-14T06:37:28;93571.84;;;11.55;53.27
27958;BME280;15295;42.658;23.374;2023-12-14T06:39:54;93608.25;;;11.72;53.20
27958;BME280;15295;42.658;23.374;2023-12-14T06:42:19;93615.53;;;11.78;52.64
27958;BME280;15295;42.658;23.374;2023-12-14T06:44:45;93621.34;;;11.80;52.61
27958;BME280;15295;42.658;23.374;2023-12-14T06:47:11;93617.72;;;11.83;52.20
27958;BME280;15295;42.658;23.374;2023-12-14T06:49:36;93607.91;;;11.86;52.13
27958;BME280;15295;42.658;23.374;2023-12-14T06:52:02;93625.28;;;11.95;52.01
27958;BME280;15295;42.658;23.374;2023-12-14T06:54:31;93631.78;;;12.01;52.13
27958;BME280;15295;42.658;23.374;2023-12-14T06:56:58;93623.22;;;11.99;51.97
27958;BME280;15295;42.658;23.374;2023-12-14T06:59:23;93622.63;;;12.08;51.69
27958;BME280;15295;42.658;23.374;2023-12-14T07:01:49;93602.16;;;12.12;51.27
27958;BME280;15295;42.658;23.374;2023-12-14T07:04:17;93613.00;;;12.16;51.29
27958;BME280;15295;42.658;23.374;2023-12-14T07:06:50;93629.63;;;12.25;51.29
27958;BME280;15295;42.658;23.374;2023-12-14T07:09:16;93621.63;;;12.30;51.21
27958;BME280;15295;42.658;23.374;2023-12-14T07:11:42;93630.69;;;12.44;51.13
27958;BME280;15295;42.658;23.374;2023-12-14T07:14:07;93623.19;;;12.60;50.52
27958;BME280;15295;42.658;23.374;2023-12-14T07:16:35;93609.41;;;12.64;50.09
27958;BME280;15295;42.658;23.374;2023-12-14T07:19:00;93620.69;;;12.66;49.93
27958;BME280;15295;42.658;23.374;2023-12-14T07:21:25;93655.16;;;12.79;50.09
27958;BME280;15295;42.658;23.374;2023-12-14T07:23:51;93633.91;;;12.83;50.20
27958;BME280;15295;42.658;23.374;2023-12-14T07:26:18;93638.00;;;12.91;50.03
27958;BME280;15295;42.658;23.374;2023-12-14T07:28:43;93637.13;;;12.94;49.87
27958;BME280;15295;42.658;23.374;2023-12-14T07:31:08;93645.50;;;13.03;49.93
27958;BME280;15295;42.658;23.374;2023-12-14T07:33:34;93642.81;;;13.16;49.92
27958;BME280;15295;42.658;23.374;2023-12-14T07:36:10;93648.09;;;13.23;49.97
27958;BME280;15295;42.658;23.374;2023-12-14T07:38:35;93657.84;;;13.24;49.48
27958;BME280;15295;42.658;23.374;2023-12-14T07:41:01;93644.13;;;13.24;49.32
27958;BME280;15295;42.658;23.374;2023-12-14T07:43:26;93651.72;;;13.33;49.20
27958;BME280;15295;42.658;23.374;2023-12-14T07:46:04;93654.59;;;13.42;48.41
27958;BME280;15295;42.658;23.374;2023-12-14T07:48:29;93652.75;;;13.51;48.68
27958;BME280;15295;42.658;23.374;2023-12-14T07:50:55;93657.78;;;13.65;48.28
27958;BME280;15295;42.658;23.374;2023-12-14T07:53:20;93659.75;;;13.77;48.09
27958;BME280;15295;42.658;23.374;2023-12-14T07:55:47;93664.94;;;13.88;47.82
27958;BME280;15295;42.658;23.374;2023-12-14T07:58:12;93660.13;;;13.92;48.02
27958;BME280;15295;42.658;23.374;2023-12-14T08:00:38;93640.31;;;13.97;47.80
27958;BME280;15295;42.658;23.374;2023-12-14T08:03:03;93675.91;;;14.13;48.04
27958;BME280;15295;42.658;23.374;2023-12-14T08:05:29;93646.00;;;14.28;47.74
27958;BME280;15295;42.658;23.374;2023-12-14T08:07:54;93674.69;;;14.52;46.93
27958;BME280;15295;42.658;23.374;2023-12-14T08:10:20;93663.81;;;14.70;46.59
27958;BME280;15295;42.658;23.374;2023-12-14T08:12:45;93653.38;;;14.99;46.17
27958;BME280;15295;42.658;23.374;2023-12-14T08:15:13;93664.59;;;15.26;44.63
27958;BME280;15295;42.658;23.374;2023-12-14T08:17:38;93663.50;;;15.46;44.92
27958;BME280;15295;42.658;23.374;2023-12-14T08:20:04;93665.16;;;15.65;44.16
27958;BME280;15295;42.658;23.374;2023-12-14T08:22:34;93659.31;;;15.63;43.98
27958;BME280;15295;42.658;23.374;2023-12-14T08:24:59;93680.47;;;15.44;43.40
27958;BME280;15295;42.658;23.374;2023-12-14T08:27:25;93673.34;;;15.34;43.42
27958;BME280;15295;42.658;23.374;2023-12-14T08:29:50;93671.03;;;15.32;43.53
27958;BME280;15295;42.658;23.374;2023-12-14T08:32:16;93680.88;;;15.42;43.84
27958;BME280;15295;42.658;23.374;2023-12-14T08:34:41;93690.25;;;15.45;43.68
27958;BME280;15295;42.658;23.374;2023-12-14T08:37:07;93676.03;;;15.47;43.56
27958;BME280;15295;42.658;23.374;2023-12-14T08:39:33;93659.19;;;15.44;43.51
27958;BME280;15295;42.658;23.374;2023-12-14T08:41:58;93672.09;;;15.48;43.50
27958;BME280;15295;42.658;23.374;2023-12-14T08:44:24;93675.94;;;15.50;43.72
27958;BME280;15295;42.658;23.374;2023-12-14T08:46:49;93671.94;;;15.51;43.65
27958;BME280;15295;42.658;23.374;2023-12-14T08:49:15;93680.34;;;15.48;43.44
27958;BME280;15295;42.658;23.374;2023-12-14T08:51:41;93679.03;;;15.61;43.48
27958;BME280;15295;42.658;23.374;2023-12-14T08:54:07;93682.88;;;15.64;43.17
27958;BME280;15295;42.658;23.374;2023-12-14T08:56:38;93687.81;;;15.69;43.19
27958;BME280;15295;42.658;23.374;2023-12-14T08:59:04;93689.47;;;15.66;43.39
27958;BME280;15295;42.658;23.374;2023-12-14T09:01:30;93681.72;;;15.74;43.54
27958;BME280;15295;42.658;23.374;2023-12-14T09:03:55;93674.16;;;15.96;43.64
27958;BME280;15295;42.658;23.374;2023-12-14T09:06:27;93680.69;;;16.20;43.06
27958;BME280;15295;42.658;23.374;2023-12-14T09:08:53;93689.00;;;16.38;42.82
27958;BME280;15295;42.658;23.374;2023-12-14T09:11:18;93698.56;;;16.55;41.96
27958;BME280;15295;42.658;23.374;2023-12-14T09:13:44;93675.00;;;16.63;41.92
27958;BME280;15295;42.658;23.374;2023-12-14T09:16:23;93677.78;;;16.81;41.57
27958;BME280;15295;42.658;23.374;2023-12-14T09:18:49;93677.78;;;16.81;40.92
27958;BME280;15295;42.658;23.374;2023-12-14T09:21:14;93672.56;;;16.83;41.08
27958;BME280;15295;42.658;23.374;2023-12-14T09:23:40;93653.56;;;16.85;40.96
27958;BME280;15295;42.658;23.374;2023-12-14T09:26:09;93655.41;;;16.88;41.00
27958;BME280;15295;42.658;23.374;2023-12-14T09:28:36;93668.28;;;16.82;40.90
27958;BME280;15295;42.658;23.374;2023-12-14T09:31:02;93652.91;;;16.54;41.27
27958;BME280;15295;42.658;23.374;2023-12-14T09:33:28;93671.03;;;16.73;41.23
27958;BME280;15295;42.658;23.374;2023-12-14T09:35:53;93676.41;;;16.86;41.48
27958;BME280;15295;42.658;23.374;2023-12-14T09:38:20;93685.91;;;16.94;41.15
27958;BME280;15295;42.658;23.374;2023-12-14T09:40:45;93679.00;;;16.98;41.43
27958;BME280;15295;42.658;23.374;2023-12-14T09:43:11;93664.31;;;17.11;41.23
27958;BME280;15295;42.658;23.374;2023-12-14T09:45:40;93678.69;;;17.24;41.19
27958;BME280;15295;42.658;23.374;2023-12-14T09:48:10;93691.59;;;17.27;40.93
27958;BME280;15295;42.658;23.374;2023-12-14T09:50:38;93681.47;;;17.33;40.34
27958;BME280;15295;42.658;23.374;2023-12-14T09:53:04;93694.66;;;17.47;40.77
27958;BME280;15295;42.658;23.374;2023-12-14T09:55:29;93687.63;;;17.55;39.77
27958;BME280;15295;42.658;23.374;2023-12-14T09:57:56;93679.75;;;17.62;40.24
27958;BME280;15295;42.658;23.374;2023-12-14T10:00:39;93703.69;;;17.75;40.02
27958;BME280;15295;42.658;23.374;2023-12-14T10:03:24;93711.81;;;17.78;39.85
27958;BME280;15295;42.658;23.374;2023-12-14T10:05:53;93686.34;;;17.74;39.71
27958;BME280;15295;42.658;23.374;2023-12-14T10:08:19;93680.34;;;17.66;39.96
27958;BME280;15295;42.658;23.374;2023-12-14T10:10:50;93677.59;;;17.66;39.99
27958;BME280;15295;42.658;23.374;2023-12-14T10:13:17;93677.75;;;17.63;40.12
27958;BME280;15295;42.658;23.374;2023-12-14T10:15:45;93688.94;;;17.68;39.94
27958;BME280;15295;42.658;23.374;2023-12-14T10:18:23;93688.03;;;17.71;40.10
27958;BME280;15295;42.658;23.374;2023-12-14T10:20:50;93687.59;;;17.64;40.08
27958;BME280;15295;42.658;23.374;2023-12-14T10:23:15;93690.03;;;17.71;40.03
27958;BME280;15295;42.658;23.374;2023-12-14T10:25:42;93697.25;;;17.68;39.99
27958;BME280;15295;42.658;23.374;2023-12-14T10:28:08;93678.56;;;17.54;40.13
27958;BME280;15295;42.658;23.374;2023-12-14T10:30:34;93675.78;;;17.63;40.24
27958;BME280;15295;42.658;23.374;2023-12-14T10:33:00;93681.13;;;17.67;40.55
27958;BME280;15295;42.658;23.374;2023-12-14T10:35:25;93696.03;;;17.69;39.96
27958;BME280;15295;42.658;23.374;2023-12-14T10:37:58;93701.84;;;17.62;39.78
27958;BME280;15295;42.658;23.374;2023-12-14T10:40:27;93709.53;;;17.67;40.05
27958;BME280;15295;42.658;23.374;2023-12-14T10:42:55;93704.78;;;17.68;39.91
27958;BME280;15295;42.658;23.374;2023-12-14T10:45:29;93703.22;;;17.67;39.93
27958;BME280;15295;42.658;23.374;2023-12-14T10:47:54;93707.97;;;17.76;39.82
27958;BME280;15295;42.658;23.374;2023-12-14T10:50:21;93708.47;;;17.65;39.75
27958;BME280;15295;42.658;23.374;2023-12-14T10:52:47;93717.53;;;17.65;40.41
27958;BME280;15295;42.658;23.374;2023-12-14T10:55:37;93737.00;;;17.71;40.19
27958;BME280;15295;42.658;23.374;2023-12-14T10:58:04;93739.16;;;17.58;40.73
27958;BME280;15295;42.658;23.374;2023-12-14T11:00:33;93748.53;;;17.42;42.18
27958;BME280;15295;42.658;23.374;2023-12-14T11:02:59;93744.38;;;17.38;42.58
27958;BME280;15295;42.658;23.374;2023-12-14T11:05:26;93747.59;;;17.36;43.60
27958;BME280;15295;42.658;23.374;2023-12-14T11:08:02;93747.72;;;17.24;44.39
27958;BME280;15295;42.658;23.374;2023-12-14T11:10:42;93759.69;;;17.12;45.23
27958;BME280;15295;42.658;23.374;2023-12-14T11:13:13;93752.91;;;16.94;45.75
27958;BME280;15295;42.658;23.374;2023-12-14T11:15:48;93759.03;;;16.89;45.91
27958;BME280;15295;42.658;23.374;2023-12-14T11:21:02;93759.63;;;16.75;46.11
27958;BME280;15295;42.658;23.374;2023-12-14T11:23:34;93763.28;;;16.63;46.39
27958;BME280;15295;42.658;23.374;2023-12-14T11:26:09;93785.31;;;16.54;46.04
27958;BME280;15295;42.658;23.374;2023-12-14T11:28:42;93783.94;;;16.28;46.36
27958;BME280;15295;42.658;23.374;2023-12-14T11:31:10;93798.50;;;16.29;46.11
27958;BME280;15295;42.658;23.374;2023-12-14T11:33:36;93800.97;;;16.05;46.21
27958;BME280;15295;42.658;23.374;2023-12-14T11:36:03;93793.25;;;15.91;45.76
27958;BME280;15295;42.658;23.374;2023-12-14T11:38:40;93791.94;;;15.83;45.96
27958;BME280;15295;42.658;23.374;2023-12-14T11:41:06;93795.94;;;15.60;46.25
27958;BME280;15295;42.658;23.374;2023-12-14T11:43:41;93794.19;;;15.54;46.15
27958;BME280;15295;42.658;23.374;2023-12-14T11:46:07;93790.78;;;15.50;46.17
27958;BME280;15295;42.658;23.374;2023-12-14T11:48:33;93783.66;;;15.39;46.09
27958;BME280;15295;42.658;23.374;2023-12-14T11:50:59;93809.81;;;15.22;46.14
27958;BME280;15295;42.658;23.374;2023-12-14T11:53:25;93811.56;;;15.16;46.37
27958;BME280;15295;42.658;23.374;2023-12-14T11:55:51;93830.22;;;15.00;46.62
27958;BME280;15295;42.658;23.374;2023-12-14T11:58:18;93828.69;;;14.99;46.69
27958;BME280;15295;42.658;23.374;2023-12-14T12:00:44;93822.84;;;14.84;46.67
27958;BME280;15295;42.658;23.374;2023-12-14T12:03:19;93847.63;;;14.84;46.86
27958;BME280;15295;42.658;23.374;2023-12-14T12:05:50;93837.63;;;14.78;46.80
27958;BME280;15295;42.658;23.374;2023-12-14T12:08:19;93847.53;;;14.75;46.62
27958;BME280;15295;42.658;23.374;2023-12-14T12:10:46;93839.94;;;14.66;46.92
27958;BME280;15295;42.658;23.374;2023-12-14T12:13:14;93847.22;;;14.60;47.07
27958;BME280;15295;42.658;23.374;2023-12-14T12:15:40;93847.63;;;14.59;47.32
27958;BME280;15295;42.658;23.374;2023-12-14T12:18:07;93838.72;;;14.42;47.19
27958;BME280;15295;42.658;23.374;2023-12-14T12:20:40;93849.72;;;14.42;47.42
27958;BME280;15295;42.658;23.374;2023-12-14T12:23:06;93815.84;;;14.33;47.41
27958;BME280;15295;42.658;23.374;2023-12-14T12:25:32;93846.59;;;14.28;47.56
27958;BME280;15295;42.658;23.374;2023-12-14T12:27:59;93832.78;;;14.31;47.24
27958;BME280;15295;42.658;23.374;2023-12-14T12:30:26;93838.72;;;14.30;47.34
27958;BME280;15295;42.658;23.374;2023-12-14T12:33:37;93804.00;;;13.94;47.58
27958;BME280;15295;42.658;23.374;2023-12-14T12:49:29;93821.91;;;13.86;48.02
27958;BME280;15295;42.658;23.374;2023-12-14T12:52:17;93813.34;;;13.56;48.24
27958;BME280;15295;42.658;23.374;2023-12-14T12:54:47;93814.06;;;13.60;48.62
27958;BME280;15295;42.658;23.374;2023-12-14T12:57:22;93848.56;;;13.73;48.64
27958;BME280;15295;42.658;23.374;2023-12-14T12:59:49;93834.28;;;13.66;48.87
27958;BME280;15295;42.658;23.374;2023-12-14T13:02:17;93832.16;;;13.57;49.05
27958;BME280;15295;42.658;23.374;2023-12-14T13:04:48;93849.53;;;13.67;49.20
27958;BME280;15295;42.658;23.374;2023-12-14T13:07:16;93821.88;;;13.45;49.30
27958;BME280;15295;42.658;23.374;2023-12-14T13:09:46;93825.84;;;13.44;49.36
27958;BME280;15295;42.658;23.374;2023-12-14T13:12:23;93859.22;;;13.71;49.07